sensor_id;sensor_type;location;lat;lon;timestamp;P1;durP1;ratioP1;P2;durP2;ratioP2
53313;SDS011;39202;51.468;7.146;2023-03-12T00:02:11;0.70;;;0.70;;
53313;SDS011;39202;51.468;7.146;2023-03-12T00:07:13;0.70;;;0.70;;
53313;SDS011;39202;51.468;7.146;2023-03-12T00:12:16;0.90;;;0.90;;
53313;SDS011;39202;51.468;7.146;2023-03-12T00:17:18;0.80;;;0.80;;
53313;SDS011;39202;51.468;7.146;2023-03-12T00:22:20;0.80;;;0.80;;
53313;SDS011;39202;51.468;7.146;2023-03-12T00:27:23;0.77;;;0.77;;
53313;SDS011;39202;51.468;7.146;2023-03-12T00:32:26;1.05;;;0.93;;
53313;SDS011;39202;51.468;7.146;2023-03-12T00:37:27;0.75;;;0.75;;
53313;SDS011;39202;51.468;7.146;2023-03-12T00:42:31;0.70;;;0.70;;
53313;SDS011;39202;51.468;7.146;2023-03-12T00:47:33;0.55;;;0.55;;
53313;SDS011;39202;51.468;7.146;2023-03-12T00:52:34;0.63;;;0.63;;
53313;SDS011;39202;51.468;7.146;2023-03-12T00:57:37;0.63;;;0.63;;
53313;SDS011;39202;51.468;7.146;2023-03-12T01:02:39;0.70;;;0.70;;
53313;SDS011;39202;51.468;7.146;2023-03-12T01:07:41;0.70;;;0.70;;
53313;SDS011;39202;51.468;7.146;2023-03-12T01:12:44;0.68;;;0.68;;
53313;SDS011;39202;51.468;7.146;2023-03-12T01:17:46;0.70;;;0.70;;
53313;SDS011;39202;51.468;7.146;2023-03-12T01:22:48;0.60;;;0.60;;
53313;SDS011;39202;51.468;7.146;2023-03-12T01:27:52;0.77;;;0.77;;
53313;SDS011;39202;51.468;7.146;2023-03-12T01:32:53;0.63;;;0.63;;
53313;SDS011;39202;51.468;7.146;2023-03-12T01:37:55;0.70;;;0.70;;
53313;SDS011;39202;51.468;7.146;2023-03-12T01:42:58;0.70;;;0.70;;
53313;SDS011;39202;51.468;7.146;2023-03-12T01:48:22;0.70;;;0.70;;
53313;SDS011;39202;51.468;7.146;2023-03-12T01:53:24;0.70;;;0.70;;
53313;SDS011;39202;51.468;7.146;2023-03-12T01:58:28;0.70;;;0.70;;
53313;SDS011;39202;51.468;7.146;2023-03-12T02:03:33;0.70;;;0.70;;
53313;SDS011;39202;51.468;7.146;2023-03-12T02:08:36;0.70;;;0.70;;
53313;SDS011;39202;51.468;7.146;2023-03-12T02:13:42;0.70;;;0.70;;
53313;SDS011;39202;51.468;7.146;2023-03-12T02:18:44;0.80;;;0.80;;
53313;SDS011;39202;51.468;7.146;2023-03-12T02:23:49;0.65;;;0.65;;
53313;SDS011;39202;51.468;7.146;2023-03-12T02:28:58;0.60;;;0.60;;
53313;SDS011;39202;51.468;7.146;2023-03-12T02:34:01;0.55;;;0.55;;
53313;SDS011;39202;51.468;7.146;2023-03-12T02:39:03;0.88;;;0.88;;
53313;SDS011;39202;51.468;7.146;2023-03-12T02:44:07;0.80;;;0.80;;
53313;SDS011;39202;51.468;7.146;2023-03-12T02:49:12;0.60;;;0.60;;
53313;SDS011;39202;51.468;7.146;2023-03-12T02:54:15;0.80;;;0.80;;
53313;SDS011;39202;51.468;7.146;2023-03-12T02:59:20;0.50;;;0.50;;
53313;SDS011;39202;51.468;7.146;2023-03-12T03:04:25;0.70;;;0.70;;
53313;SDS011;39202;51.468;7.146;2023-03-12T03:09:27;0.80;;;0.80;;
53313;SDS011;39202;51.468;7.146;2023-03-12T03:14:30;0.60;;;0.60;;
53313;SDS011;39202;51.468;7.146;2023-03-12T03:19:32;0.60;;;0.60;;
53313;SDS011;39202;51.468;7.146;2023-03-12T03:24:34;0.70;;;0.70;;
53313;SDS011;39202;51.468;7.146;2023-03-12T03:29:37;0.63;;;0.63;;
53313;SDS011;39202;51.468;7.146;2023-03-12T03:34:39;0.70;;;0.70;;
53313;SDS011;39202;51.468;7.146;2023-03-12T03:39:41;0.57;;;0.57;;
53313;SDS011;39202;51.468;7.146;2023-03-12T03:44:44;0.70;;;0.70;;
53313;SDS011;39202;51.468;7.146;2023-03-12T03:49:46;0.60;;;0.60;;
53313;SDS011;39202;51.468;7.146;2023-03-12T03:54:47;0.70;;;0.70;;
53313;SDS011;39202;51.468;7.146;2023-03-12T03:59:50;0.70;;;0.70;;
53313;SDS011;39202;51.468;7.146;2023-03-12T04:04:55;0.70;;;0.70;;
53313;SDS011;39202;51.468;7.146;2023-03-12T04:09:58;0.50;;;0.50;;
53313;SDS011;39202;51.468;7.146;2023-03-12T04:15:01;0.60;;;0.60;;
53313;SDS011;39202;51.468;7.146;2023-03-12T04:20:04;0.60;;;0.60;;
53313;SDS011;39202;51.468;7.146;2023-03-12T04:25:08;0.63;;;0.63;;
53313;SDS011;39202;51.468;7.146;2023-03-12T04:30:12;0.60;;;0.60;;
53313;SDS011;39202;51.468;7.146;2023-03-12T04:35:14;0.70;;;0.70;;
53313;SDS011;39202;51.468;7.146;2023-03-12T04:40:16;0.65;;;0.65;;
53313;SDS011;39202;51.468;7.146;2023-03-12T04:45:20;0.70;;;0.70;;
53313;SDS011;39202;51.468;7.146;2023-03-12T04:50:22;0.55;;;0.55;;
53313;SDS011;39202;51.468;7.146;2023-03-12T04:55:24;0.70;;;0.70;;
53313;SDS011;39202;51.468;7.146;2023-03-12T05:00:27;0.60;;;0.60;;
53313;SDS011;39202;51.468;7.146;2023-03-12T05:05:29;0.60;;;0.60;;
53313;SDS011;39202;51.468;7.146;2023-03-12T05:10:31;0.60;;;0.60;;
53313;SDS011;39202;51.468;7.146;2023-03-12T05:15:36;0.63;;;0.63;;
53313;SDS011;39202;51.468;7.146;2023-03-12T05:20:38;0.60;;;0.60;;
53313;SDS011;39202;51.468;7.146;2023-03-12T05:25:40;0.60;;;0.60;;
53313;SDS011;39202;51.468;7.146;2023-03-12T05:30:43;0.50;;;0.50;;
53313;SDS011;39202;51.468;7.146;2023-03-12T05:35:45;0.50;;;0.50;;
53313;SDS011;39202;51.468;7.146;2023-03-12T05:40:50;0.70;;;0.70;;
53313;SDS011;39202;51.468;7.146;2023-03-12T05:45:56;0.60;;;0.60;;
53313;SDS011;39202;51.468;7.146;2023-03-12T05:50:59;0.60;;;0.60;;
53313;SDS011;39202;51.468;7.146;2023-03-12T05:56:01;0.60;;;0.60;;
53313;SDS011;39202;51.468;7.146;2023-03-12T06:01:12;0.60;;;0.60;;
53313;SDS011;39202;51.468;7.146;2023-03-12T06:06:15;0.60;;;0.60;;
53313;SDS011;39202;51.468;7.146;2023-03-12T06:11:17;0.60;;;0.60;;
53313;SDS011;39202;51.468;7.146;2023-03-12T06:16:21;0.60;;;0.60;;
53313;SDS011;39202;51.468;7.146;2023-03-12T06:21:24;0.70;;;0.70;;
53313;SDS011;39202;51.468;7.146;2023-03-12T06:26:28;0.70;;;0.70;;
53313;SDS011;39202;51.468;7.146;2023-03-12T06:31:31;0.65;;;0.65;;
53313;SDS011;39202;51.468;7.146;2023-03-12T06:36:33;0.60;;;0.60;;
53313;SDS011;39202;51.468;7.146;2023-03-12T06:41:35;0.60;;;0.60;;
53313;SDS011;39202;51.468;7.146;2023-03-12T06:46:38;0.70;;;0.70;;
53313;SDS011;39202;51.468;7.146;2023-03-12T06:51:40;0.60;;;0.60;;
53313;SDS011;39202;51.468;7.146;2023-03-12T06:56:42;0.52;;;0.52;;
53313;SDS011;39202;51.468;7.146;2023-03-12T07:01:46;0.70;;;0.70;;
53313;SDS011;39202;51.468;7.146;2023-03-12T07:06:48;0.70;;;0.70;;
53313;SDS011;39202;51.468;7.146;2023-03-12T07:11:50;0.60;;;0.60;;
53313;SDS011;39202;51.468;7.146;2023-03-12T07:16:53;0.57;;;0.57;;
53313;SDS011;39202;51.468;7.146;2023-03-12T07:21:55;0.60;;;0.60;;
53313;SDS011;39202;51.468;7.146;2023-03-12T07:26:57;0.40;;;0.40;;
53313;SDS011;39202;51.468;7.146;2023-03-12T07:32:00;0.60;;;0.60;;
53313;SDS011;39202;51.468;7.146;2023-03-12T07:37:02;0.50;;;0.50;;
53313;SDS011;39202;51.468;7.146;2023-03-12T07:42:05;0.50;;;0.50;;
53313;SDS011;39202;51.468;7.146;2023-03-12T07:47:08;0.60;;;0.60;;
53313;SDS011;39202;51.468;7.146;2023-03-12T07:52:10;0.50;;;0.50;;
53313;SDS011;39202;51.468;7.146;2023-03-12T07:57:12;0.60;;;0.60;;
53313;SDS011;39202;51.468;7.146;2023-03-12T08:02:15;0.60;;;0.60;;
53313;SDS011;39202;51.468;7.146;2023-03-12T08:07:17;0.40;;;0.40;;
53313;SDS011;39202;51.468;7.146;2023-03-12T08:12:19;0.50;;;0.50;;
53313;SDS011;39202;51.468;7.146;2023-03-12T08:17:22;0.50;;;0.50;;
53313;SDS011;39202;51.468;7.146;2023-03-12T08:22:24;0.60;;;0.60;;
53313;SDS011;39202;51.468;7.146;2023-03-12T08:27:26;0.50;;;0.50;;
53313;SDS011;39202;51.468;7.146;2023-03-12T08:32:29;0.60;;;0.60;;
53313;SDS011;39202;51.468;7.146;2023-03-12T08:37:31;0.50;;;0.50;;
53313;SDS011;39202;51.468;7.146;2023-03-12T08:42:33;0.65;;;0.65;;
53313;SDS011;39202;51.468;7.146;2023-03-12T08:47:36;0.60;;;0.60;;
53313;SDS011;39202;51.468;7.146;2023-03-12T08:52:40;0.60;;;0.60;;
53313;SDS011;39202;51.468;7.146;2023-03-12T08:57:43;0.52;;;0.52;;
53313;SDS011;39202;51.468;7.146;2023-03-12T09:02:46;0.60;;;0.60;;
53313;SDS011;39202;51.468;7.146;2023-03-12T09:07:50;0.60;;;0.60;;
53313;SDS011;39202;51.468;7.146;2023-03-12T09:12:52;0.70;;;0.70;;
53313;SDS011;39202;51.468;7.146;2023-03-12T09:17:55;0.50;;;0.50;;
53313;SDS011;39202;51.468;7.146;2023-03-12T09:22:56;0.47;;;0.47;;
53313;SDS011;39202;51.468;7.146;2023-03-12T09:27:58;0.50;;;0.50;;
53313;SDS011;39202;51.468;7.146;2023-03-12T09:33:02;0.43;;;0.43;;
53313;SDS011;39202;51.468;7.146;2023-03-12T09:38:04;0.60;;;0.60;;
53313;SDS011;39202;51.468;7.146;2023-03-12T09:43:09;0.50;;;0.50;;
53313;SDS011;39202;51.468;7.146;2023-03-12T09:48:18;0.60;;;0.60;;
53313;SDS011;39202;51.468;7.146;2023-03-12T09:53:27;0.60;;;0.60;;
53313;SDS011;39202;51.468;7.146;2023-03-12T09:58:34;0.60;;;0.60;;
53313;SDS011;39202;51.468;7.146;2023-03-12T10:03:48;0.60;;;0.60;;
53313;SDS011;39202;51.468;7.146;2023-03-12T10:09:00;0.50;;;0.50;;
53313;SDS011;39202;51.468;7.146;2023-03-12T10:14:16;0.60;;;0.60;;
53313;SDS011;39202;51.468;7.146;2023-03-12T10:19:36;0.50;;;0.50;;
53313;SDS011;39202;51.468;7.146;2023-03-12T10:24:50;0.50;;;0.50;;
53313;SDS011;39202;51.468;7.146;2023-03-12T10:30:00;0.50;;;0.50;;
53313;SDS011;39202;51.468;7.146;2023-03-12T10:35:12;0.43;;;0.43;;
53313;SDS011;39202;51.468;7.146;2023-03-12T10:40:16;0.50;;;0.50;;
53313;SDS011;39202;51.468;7.146;2023-03-12T10:45:26;0.50;;;0.50;;
53313;SDS011;39202;51.468;7.146;2023-03-12T10:50:36;0.50;;;0.50;;
53313;SDS011;39202;51.468;7.146;2023-03-12T10:55:39;0.47;;;0.47;;
53313;SDS011;39202;51.468;7.146;2023-03-12T11:00:45;0.60;;;0.60;;
53313;SDS011;39202;51.468;7.146;2023-03-12T11:05:58;0.50;;;0.50;;
53313;SDS011;39202;51.468;7.146;2023-03-12T11:11:01;0.50;;;0.50;;
53313;SDS011;39202;51.468;7.146;2023-03-12T11:21:34;0.50;;;0.50;;
53313;SDS011;39202;51.468;7.146;2023-03-12T11:26:46;0.50;;;0.50;;
53313;SDS011;39202;51.468;7.146;2023-03-12T11:32:01;0.50;;;0.50;;
53313;SDS011;39202;51.468;7.146;2023-03-12T11:37:27;0.40;;;0.40;;
53313;SDS011;39202;51.468;7.146;2023-03-12T11:42:42;0.50;;;0.50;;
53313;SDS011;39202;51.468;7.146;2023-03-12T11:47:58;0.50;;;0.50;;
53313;SDS011;39202;51.468;7.146;2023-03-12T11:53:18;0.50;;;0.50;;
53313;SDS011;39202;51.468;7.146;2023-03-12T11:58:39;0.43;;;0.43;;
53313;SDS011;39202;51.468;7.146;2023-03-12T12:03:51;0.50;;;0.50;;
53313;SDS011;39202;51.468;7.146;2023-03-12T12:09:18;0.52;;;0.52;;
53313;SDS011;39202;51.468;7.146;2023-03-12T12:14:36;0.50;;;0.50;;
53313;SDS011;39202;51.468;7.146;2023-03-12T12:19:51;0.50;;;0.50;;
53313;SDS011;39202;51.468;7.146;2023-03-12T12:25:11;0.40;;;0.40;;
53313;SDS011;39202;51.468;7.146;2023-03-12T12:30:41;0.40;;;0.40;;
53313;SDS011;39202;51.468;7.146;2023-03-12T12:36:11;0.50;;;0.50;;
53313;SDS011;39202;51.468;7.146;2023-03-12T12:53:22;0.50;;;0.50;;
53313;SDS011;39202;51.468;7.146;2023-03-12T12:58:39;1.55;;;0.60;;
53313;SDS011;39202;51.468;7.146;2023-03-12T13:03:55;0.40;;;0.40;;
53313;SDS011;39202;51.468;7.146;2023-03-12T13:19:41;0.50;;;0.50;;
53313;SDS011;39202;51.468;7.146;2023-03-12T13:24:47;0.40;;;0.40;;
53313;SDS011;39202;51.468;7.146;2023-03-12T13:29:54;0.50;;;0.50;;
53313;SDS011;39202;51.468;7.146;2023-03-12T13:34:58;0.50;;;0.50;;
53313;SDS011;39202;51.468;7.146;2023-03-12T13:40:00;0.47;;;0.47;;
53313;SDS011;39202;51.468;7.146;2023-03-12T13:45:20;0.40;;;0.40;;
53313;SDS011;39202;51.468;7.146;2023-03-12T13:50:26;0.50;;;0.50;;
53313;SDS011;39202;51.468;7.146;2023-03-12T13:55:29;0.40;;;0.40;;
53313;SDS011;39202;51.468;7.146;2023-03-12T14:00:35;0.30;;;0.30;;
53313;SDS011;39202;51.468;7.146;2023-03-12T14:05:44;0.45;;;0.45;;
53313;SDS011;39202;51.468;7.146;2023-03-12T14:10:55;0.50;;;0.50;;
53313;SDS011;39202;51.468;7.146;2023-03-12T14:16:04;0.60;;;0.60;;
53313;SDS011;39202;51.468;7.146;2023-03-12T14:21:14;0.60;;;0.57;;
53313;SDS011;39202;51.468;7.146;2023-03-12T14:26:18;0.50;;;0.50;;
53313;SDS011;39202;51.468;7.146;2023-03-12T14:31:23;0.43;;;0.43;;
53313;SDS011;39202;51.468;7.146;2023-03-12T14:36:28;0.50;;;0.50;;
53313;SDS011;39202;51.468;7.146;2023-03-12T14:41:38;0.55;;;0.55;;
53313;SDS011;39202;51.468;7.146;2023-03-12T14:46:45;0.60;;;0.60;;
53313;SDS011;39202;51.468;7.146;2023-03-12T14:51:56;0.40;;;0.40;;
53313;SDS011;39202;51.468;7.146;2023-03-12T14:56:58;0.40;;;0.40;;
53313;SDS011;39202;51.468;7.146;2023-03-12T15:02:00;0.50;;;0.50;;
53313;SDS011;39202;51.468;7.146;2023-03-12T15:07:12;0.50;;;0.50;;
53313;SDS011;39202;51.468;7.146;2023-03-12T15:12:17;0.50;;;0.50;;
53313;SDS011;39202;51.468;7.146;2023-03-12T15:17:22;0.50;;;0.50;;
53313;SDS011;39202;51.468;7.146;2023-03-12T15:22:29;0.57;;;0.57;;
53313;SDS011;39202;51.468;7.146;2023-03-12T15:27:32;0.60;;;0.60;;
53313;SDS011;39202;51.468;7.146;2023-03-12T15:32:34;0.50;;;0.50;;
53313;SDS011;39202;51.468;7.146;2023-03-12T15:37:37;0.50;;;0.50;;
53313;SDS011;39202;51.468;7.146;2023-03-12T15:42:40;0.45;;;0.45;;
53313;SDS011;39202;51.468;7.146;2023-03-12T15:47:46;0.30;;;0.30;;
53313;SDS011;39202;51.468;7.146;2023-03-12T15:52:59;0.43;;;0.43;;
53313;SDS011;39202;51.468;7.146;2023-03-12T15:58:21;0.55;;;0.55;;
53313;SDS011;39202;51.468;7.146;2023-03-12T16:03:25;0.50;;;0.50;;
53313;SDS011;39202;51.468;7.146;2023-03-12T16:08:30;0.45;;;0.45;;
53313;SDS011;39202;51.468;7.146;2023-03-12T16:13:36;0.45;;;0.45;;
53313;SDS011;39202;51.468;7.146;2023-03-12T16:18:38;0.50;;;0.50;;
53313;SDS011;39202;51.468;7.146;2023-03-12T16:23:42;0.52;;;0.52;;
53313;SDS011;39202;51.468;7.146;2023-03-12T16:28:43;0.50;;;0.50;;
53313;SDS011;39202;51.468;7.146;2023-03-12T16:33:45;0.40;;;0.40;;
53313;SDS011;39202;51.468;7.146;2023-03-12T16:38:49;0.60;;;0.60;;
53313;SDS011;39202;51.468;7.146;2023-03-12T16:43:50;0.52;;;0.50;;
53313;SDS011;39202;51.468;7.146;2023-03-12T16:48:53;0.55;;;0.55;;
53313;SDS011;39202;51.468;7.146;2023-03-12T16:53:56;0.40;;;0.40;;
53313;SDS011;39202;51.468;7.146;2023-03-12T16:58:58;0.60;;;0.60;;
53313;SDS011;39202;51.468;7.146;2023-03-12T17:04:02;0.40;;;0.40;;
53313;SDS011;39202;51.468;7.146;2023-03-12T17:09:06;0.60;;;0.60;;
53313;SDS011;39202;51.468;7.146;2023-03-12T17:14:13;0.50;;;0.50;;
53313;SDS011;39202;51.468;7.146;2023-03-12T17:19:17;0.50;;;0.50;;
53313;SDS011;39202;51.468;7.146;2023-03-12T17:24:20;0.43;;;0.43;;
53313;SDS011;39202;51.468;7.146;2023-03-12T17:29:27;0.45;;;0.45;;
53313;SDS011;39202;51.468;7.146;2023-03-12T17:34:28;0.45;;;0.45;;
53313;SDS011;39202;51.468;7.146;2023-03-12T17:39:32;0.50;;;0.50;;
53313;SDS011;39202;51.468;7.146;2023-03-12T17:44:34;0.50;;;0.50;;
53313;SDS011;39202;51.468;7.146;2023-03-12T17:49:37;0.50;;;0.50;;
53313;SDS011;39202;51.468;7.146;2023-03-12T17:54:41;0.45;;;0.45;;
53313;SDS011;39202;51.468;7.146;2023-03-12T17:59:43;0.63;;;0.63;;
53313;SDS011;39202;51.468;7.146;2023-03-12T18:04:44;0.50;;;0.50;;
53313;SDS011;39202;51.468;7.146;2023-03-12T18:09:47;0.52;;;0.52;;
53313;SDS011;39202;51.468;7.146;2023-03-12T18:14:49;0.57;;;0.57;;
53313;SDS011;39202;51.468;7.146;2023-03-12T18:19:51;0.40;;;0.40;;
53313;SDS011;39202;51.468;7.146;2023-03-12T18:24:54;0.38;;;0.38;;
53313;SDS011;39202;51.468;7.146;2023-03-12T18:29:56;0.40;;;0.40;;
53313;SDS011;39202;51.468;7.146;2023-03-12T18:34:57;0.50;;;0.50;;
53313;SDS011;39202;51.468;7.146;2023-03-12T18:40:00;0.60;;;0.60;;
53313;SDS011;39202;51.468;7.146;2023-03-12T18:45:04;0.40;;;0.40;;
53313;SDS011;39202;51.468;7.146;2023-03-12T18:50:07;0.52;;;0.47;;
53313;SDS011;39202;51.468;7.146;2023-03-12T18:55:11;0.50;;;0.50;;
53313;SDS011;39202;51.468;7.146;2023-03-12T19:00:15;0.50;;;0.50;;
53313;SDS011;39202;51.468;7.146;2023-03-12T19:05:18;0.40;;;0.40;;
53313;SDS011;39202;51.468;7.146;2023-03-12T19:10:21;0.40;;;0.40;;
53313;SDS011;39202;51.468;7.146;2023-03-12T19:15:23;0.50;;;0.50;;
53313;SDS011;39202;51.468;7.146;2023-03-12T19:20:24;0.47;;;0.47;;
53313;SDS011;39202;51.468;7.146;2023-03-12T19:25:28;0.40;;;0.40;;
53313;SDS011;39202;51.468;7.146;2023-03-12T19:30:31;0.40;;;0.40;;
53313;SDS011;39202;51.468;7.146;2023-03-12T19:35:35;0.52;;;0.52;;
53313;SDS011;39202;51.468;7.146;2023-03-12T19:40:39;0.50;;;0.50;;
53313;SDS011;39202;51.468;7.146;2023-03-12T19:45:41;0.43;;;0.43;;
53313;SDS011;39202;51.468;7.146;2023-03-12T19:50:43;0.40;;;0.40;;
53313;SDS011;39202;51.468;7.146;2023-03-12T19:55:46;0.60;;;0.60;;
53313;SDS011;39202;51.468;7.146;2023-03-12T20:00:48;0.50;;;0.50;;
53313;SDS011;39202;51.468;7.146;2023-03-12T20:05:50;0.40;;;0.40;;
53313;SDS011;39202;51.468;7.146;2023-03-12T20:10:59;0.50;;;0.50;;
53313;SDS011;39202;51.468;7.146;2023-03-12T20:16:01;0.55;;;0.55;;
53313;SDS011;39202;51.468;7.146;2023-03-12T20:21:04;0.50;;;0.50;;
53313;SDS011;39202;51.468;7.146;2023-03-12T20:26:07;0.60;;;0.60;;
53313;SDS011;39202;51.468;7.146;2023-03-12T20:31:09;0.60;;;0.60;;
53313;SDS011;39202;51.468;7.146;2023-03-12T20:36:13;0.47;;;0.47;;
53313;SDS011;39202;51.468;7.146;2023-03-12T20:41:16;0.50;;;0.50;;
53313;SDS011;39202;51.468;7.146;2023-03-12T20:46:18;0.40;;;0.40;;
53313;SDS011;39202;51.468;7.146;2023-03-12T20:51:19;0.50;;;0.50;;
53313;SDS011;39202;51.468;7.146;2023-03-12T20:56:23;0.40;;;0.40;;
53313;SDS011;39202;51.468;7.146;2023-03-12T21:01:24;0.50;;;0.50;;
53313;SDS011;39202;51.468;7.146;2023-03-12T21:06:26;0.40;;;0.40;;
53313;SDS011;39202;51.468;7.146;2023-03-12T21:11:29;0.40;;;0.40;;
53313;SDS011;39202;51.468;7.146;2023-03-12T21:16:31;0.40;;;0.40;;
53313;SDS011;39202;51.468;7.146;2023-03-12T21:21:33;0.50;;;0.50;;
53313;SDS011;39202;51.468;7.146;2023-03-12T21:26:37;0.60;;;0.60;;
53313;SDS011;39202;51.468;7.146;2023-03-12T21:31:38;0.47;;;0.47;;
53313;SDS011;39202;51.468;7.146;2023-03-12T21:36:40;0.50;;;0.50;;
53313;SDS011;39202;51.468;7.146;2023-03-12T21:41:43;0.50;;;0.50;;
53313;SDS011;39202;51.468;7.146;2023-03-12T21:46:45;0.50;;;0.50;;
53313;SDS011;39202;51.468;7.146;2023-03-12T21:51:46;0.50;;;0.50;;
53313;SDS011;39202;51.468;7.146;2023-03-12T21:56:50;0.45;;;0.45;;
53313;SDS011;39202;51.468;7.146;2023-03-12T22:01:51;0.50;;;0.50;;
53313;SDS011;39202;51.468;7.146;2023-03-12T22:06:53;0.52;;;0.52;;
53313;SDS011;39202;51.468;7.146;2023-03-12T22:11:57;0.40;;;0.40;;
53313;SDS011;39202;51.468;7.146;2023-03-12T22:16:58;0.40;;;0.40;;
53313;SDS011;39202;51.468;7.146;2023-03-12T22:22:00;0.60;;;0.60;;
53313;SDS011;39202;51.468;7.146;2023-03-12T22:27:03;0.55;;;0.55;;
53313;SDS011;39202;51.468;7.146;2023-03-12T22:32:06;0.45;;;0.45;;
53313;SDS011;39202;51.468;7.146;2023-03-12T22:37:08;0.40;;;0.40;;
53313;SDS011;39202;51.468;7.146;2023-03-12T22:42:11;0.50;;;0.50;;
53313;SDS011;39202;51.468;7.146;2023-03-12T22:47:13;0.43;;;0.43;;
53313;SDS011;39202;51.468;7.146;2023-03-12T22:52:14;0.50;;;0.50;;
53313;SDS011;39202;51.468;7.146;2023-03-12T22:57:17;0.50;;;0.50;;
53313;SDS011;39202;51.468;7.146;2023-03-12T23:02:19;0.47;;;0.47;;
53313;SDS011;39202;51.468;7.146;2023-03-12T23:07:21;0.40;;;0.40;;
53313;SDS011;39202;51.468;7.146;2023-03-12T23:12:24;0.40;;;0.40;;
53313;SDS011;39202;51.468;7.146;2023-03-12T23:17:25;0.50;;;0.50;;
53313;SDS011;39202;51.468;7.146;2023-03-12T23:22:27;0.40;;;0.40;;
53313;SDS011;39202;51.468;7.146;2023-03-12T23:27:30;0.40;;;0.40;;
53313;SDS011;39202;51.468;7.146;2023-03-12T23:32:33;0.47;;;0.47;;
53313;SDS011;39202;51.468;7.146;2023-03-12T23:37:34;0.45;;;0.45;;
53313;SDS011;39202;51.468;7.146;2023-03-12T23:42:38;0.50;;;0.50;;
53313;SDS011;39202;51.468;7.146;2023-03-12T23:47:39;0.57;;;0.57;;
53313;SDS011;39202;51.468;7.146;2023-03-12T23:52:41;0.50;;;0.50;;
53313;SDS011;39202;51.468;7.146;2023-03-12T23:57:44;0.43;;;0.43;;
